Time;durP1;ratioP1;P1;durP2;ratioP2;P2;SDS_P1;SDS_P2;PMS_P1;PMS_P2;Temp;Humidity;BMP_temperature;BMP_pressure;BME280_temperature;BME280_humidity;BME280_pressure;Samples;Min_cycle;Max_cycle;Signal;HPM_P1;HPM_P2
2022/11/03 00:02:17;;;;;;;16.03;10.20;;;7.20;1.00;;;;;;6168121;23;20247;-83
2022/11/03 00:04:49;;;;;;;14.05;8.65;;;7.20;1.00;;;;;;6169575;23;20558;-83
2022/11/03 00:07:21;;;;;;;15.50;10.13;;;7.20;1.00;;;;;;6166274;23;20219;-84
2022/11/03 00:09:51;;;;;;;12.25;8.60;;;7.20;1.00;;;;;;6166639;23;20247;-84
2022/11/03 00:12:19;;;;;;;15.82;9.50;;;7.20;1.00;;;;;;6167741;23;20322;-84
2022/11/03 00:14:49;;;;;;;19.17;9.68;;;7.10;1.00;;;;;;6170026;23;20295;-84
2022/11/03 00:17:19;;;;;;;16.25;9.88;;;7.10;1.00;;;;;;6171001;23;20339;-83
2022/11/03 00:19:58;;;;;;;13.02;9.10;;;7.00;1.00;;;;;;6162852;23;20207;-82
2022/11/03 00:25:19;;;;;;;14.60;7.60;;;6.90;1.00;;;;;;6151524;23;20220;-84
2022/11/03 00:28:00;;;;;;;12.45;8.85;;;6.80;1.00;;;;;;6166495;23;20251;-83
2022/11/03 00:33:19;;;;;;;14.30;8.95;;;6.70;1.00;;;;;;6124660;23;20367;-82
2022/11/03 00:35:52;;;;;;;12.13;8.52;;;6.70;1.00;;;;;;6163149;23;20220;-82
2022/11/03 00:38:19;;;;;;;14.43;8.35;;;6.60;1.00;;;;;;6163107;23;20226;-84
2022/11/03 00:40:58;;;;;;;11.82;8.35;;;6.60;1.00;;;;;;6163988;23;20260;-84
2022/11/03 00:43:40;;;;;;;14.32;8.63;;;6.60;1.00;;;;;;6148790;23;21081;-84
2022/11/03 00:46:11;;;;;;;13.80;8.52;;;6.60;1.00;;;;;;6164873;23;20223;-84
2022/11/03 00:48:40;;;;;;;13.77;8.20;;;6.50;1.00;;;;;;6164301;23;20216;-82
2022/11/03 00:51:12;;;;;;;16.40;9.25;;;6.50;1.00;;;;;;6146844;23;20196;-85
2022/11/03 00:53:41;;;;;;;13.48;8.13;;;6.60;1.00;;;;;;6166156;23;20223;-86
2022/11/03 00:56:16;;;;;;;11.63;7.45;;;6.60;1.00;;;;;;6165986;23;20212;-83
2022/11/03 00:58:51;;;;;;;12.45;7.97;;;6.60;1.00;;;;;;6166204;23;20287;-85
2022/11/03 01:01:27;;;;;;;16.13;8.85;;;6.50;1.00;;;;;;6165802;23;20366;-82
2022/11/03 01:06:50;;;;;;;12.07;7.38;;;6.40;1.00;;;;;;6164656;23;20215;-85
2022/11/03 01:09:17;;;;;;;13.95;7.70;;;6.40;1.00;;;;;;6164211;23;20212;-83
2022/11/03 01:11:59;;;;;;;12.45;7.82;;;6.50;1.00;;;;;;6164058;23;20254;-83
2022/11/03 01:14:35;;;;;;;11.77;7.18;;;6.50;1.00;;;;;;6165229;23;20274;-83
2022/11/03 01:17:18;;;;;;;11.32;6.88;;;6.50;1.00;;;;;;6162611;23;20763;-82
2022/11/03 01:19:52;;;;;;;13.07;7.50;;;6.50;1.00;;;;;;6155314;23;20196;-82
2022/11/03 01:22:28;;;;;;;12.80;6.65;;;6.50;1.00;;;;;;6125852;23;20980;-85
2022/11/03 01:27:50;;;;;;;12.25;7.68;;;6.50;1.00;;;;;;6154351;23;20216;-81
2022/11/03 01:30:20;;;;;;;13.82;6.78;;;6.60;1.00;;;;;;6165473;23;20407;-80
2022/11/03 01:32:51;;;;;;;11.63;6.80;;;6.60;1.00;;;;;;6165148;23;20610;-80
2022/11/03 01:35:18;;;;;;;13.20;7.05;;;6.60;1.00;;;;;;6162088;23;20212;-82
2022/11/03 01:37:55;;;;;;;14.45;7.43;;;6.60;1.00;;;;;;6161750;23;20794;-81
2022/11/03 01:40:22;;;;;;;13.40;7.80;;;6.50;1.00;;;;;;6153552;23;21116;-79
2022/11/03 01:42:49;;;;;;;11.10;7.85;;;6.50;1.00;;;;;;6169254;23;20752;-84
2022/11/03 01:45:19;;;;;;;13.25;7.35;;;6.50;1.00;;;;;;6170894;23;20203;-83
2022/11/03 01:47:50;;;;;;;13.35;7.28;;;6.50;1.00;;;;;;6169453;23;20246;-84
2022/11/03 01:50:20;;;;;;;13.45;7.30;;;6.50;1.00;;;;;;6169242;23;20263;-80
2022/11/03 01:53:05;;;;;;;10.45;7.03;;;6.40;1.00;;;;;;6165910;23;20214;-83
2022/11/03 01:55:39;;;;;;;14.68;7.30;;;6.40;1.00;;;;;;6170605;23;20215;-82
2022/11/03 01:58:23;;;;;;;11.68;6.72;;;6.30;1.00;;;;;;6170480;23;20258;-85
2022/11/03 02:00:58;;;;;;;10.45;6.80;;;6.20;1.00;;;;;;6168582;23;20215;-82
2022/11/03 02:03:40;;;;;;;13.32;7.40;;;6.20;1.00;;;;;;6170656;23;20727;-83
2022/11/03 02:06:12;;;;;;;10.50;6.60;;;6.10;1.00;;;;;;6170664;23;20212;-84
2022/11/03 02:08:48;;;;;;;10.63;6.25;;;6.00;1.00;;;;;;6171800;23;21048;-79
2022/11/03 02:14:14;;;;;;;10.98;6.50;;;6.00;1.00;;;;;;6170523;23;20801;-84
2022/11/03 02:16:49;;;;;;;12.35;7.13;;;6.00;1.00;;;;;;6171236;23;20792;-83
2022/11/03 02:19:31;;;;;;;11.60;6.40;;;6.00;1.00;;;;;;6170856;23;20263;-84
2022/11/03 02:22:22;;;;;;;12.15;6.80;;;5.90;1.00;;;;;;6169212;23;20202;-82
2022/11/03 02:24:52;;;;;;;13.85;9.10;;;5.90;1.00;;;;;;6163804;23;20221;-80
2022/11/03 02:27:21;;;;;;;11.18;7.40;;;5.80;1.00;;;;;;6171498;23;20578;-83
2022/11/03 02:29:51;;;;;;;12.45;6.47;;;5.80;1.00;;;;;;6170489;23;20636;-81
2022/11/03 02:32:25;;;;;;;17.35;7.18;;;5.70;1.00;;;;;;6166104;23;20222;-82
2022/11/03 02:35:00;;;;;;;11.85;6.90;;;5.70;1.00;;;;;;6165869;23;20259;-83
2022/11/03 02:37:39;;;;;;;12.48;6.82;;;5.70;1.00;;;;;;6172140;23;20221;-80
2022/11/03 02:40:22;;;;;;;12.23;6.50;;;5.70;1.00;;;;;;6168533;23;20273;-83
2022/11/03 02:42:58;;;;;;;14.02;7.30;;;5.70;1.00;;;;;;6172010;23;21028;-84
2022/11/03 02:45:30;;;;;;;11.80;6.82;;;5.70;1.00;;;;;;6169252;23;20214;-81
2022/11/03 02:48:01;;;;;;;11.30;7.63;;;5.70;1.00;;;;;;6168788;23;20238;-81
2022/11/03 02:50:29;;;;;;;11.43;7.38;;;5.80;1.00;;;;;;6165765;23;20259;-84
2022/11/03 02:53:00;;;;;;;13.73;7.38;;;5.80;1.00;;;;;;6169425;23;20259;-84
2022/11/03 02:55:38;;;;;;;12.48;7.85;;;5.70;1.00;;;;;;6170790;23;20226;-85
2022/11/03 02:58:22;;;;;;;12.60;7.82;;;5.80;1.00;;;;;;6167897;23;20215;-84
2022/11/03 03:00:59;;;;;;;11.40;7.05;;;5.80;1.00;;;;;;6167402;23;20211;-84
2022/11/03 03:03:30;;;;;;;15.68;8.25;;;5.80;1.00;;;;;;6168458;23;20226;-84
2022/11/03 03:06:08;;;;;;;11.68;7.00;;;5.80;1.00;;;;;;6139969;23;20216;-83
2022/11/03 03:08:48;;;;;;;13.93;7.18;;;5.80;1.00;;;;;;6141478;23;20211;-85
2022/11/03 03:11:41;;;;;;;14.18;7.38;;;5.80;1.00;;;;;;6141136;23;20208;-82
2022/11/03 03:14:25;;;;;;;12.25;6.60;;;5.90;1.00;;;;;;6140861;23;20331;-85
2022/11/03 03:17:00;;;;;;;12.15;6.70;;;6.00;1.00;;;;;;6139866;23;20276;-83
2022/11/03 03:19:44;;;;;;;12.25;7.20;;;5.90;1.00;;;;;;6138159;23;20295;-84
2022/11/03 03:22:22;;;;;;;11.73;6.90;;;5.90;1.00;;;;;;6138267;23;20215;-83
2022/11/03 03:24:59;;;;;;;10.90;5.95;;;5.90;1.00;;;;;;6139589;23;20991;-84
2022/11/03 03:27:31;;;;;;;13.52;6.68;;;6.00;1.00;;;;;;6139766;23;20220;-84
2022/11/03 03:30:19;;;;;;;11.98;6.82;;;6.00;1.00;;;;;;6140424;23;20208;-84
2022/11/03 03:32:52;;;;;;;13.77;7.05;;;6.10;1.00;;;;;;6138045;23;20212;-83
2022/11/03 03:35:28;;;;;;;13.82;6.60;;;6.10;1.00;;;;;;6126024;23;20269;-80
2022/11/03 03:38:09;;;;;;;11.85;6.88;;;6.20;1.00;;;;;;6137141;23;20212;-81
2022/11/03 03:40:44;;;;;;;10.23;6.43;;;6.10;1.00;;;;;;6137438;23;20263;-80
2022/11/03 03:43:20;;;;;;;9.18;6.70;;;6.10;1.00;;;;;;6134629;23;20271;-79
2022/11/03 03:46:01;;;;;;;12.90;6.68;;;6.20;1.00;;;;;;6141578;23;20255;-79
2022/11/03 03:48:31;;;;;;;13.57;6.95;;;6.10;1.00;;;;;;6141149;23;20213;-83
2022/11/03 03:51:02;;;;;;;10.25;5.78;;;6.20;1.00;;;;;;6141410;23;20928;-83
2022/11/03 03:53:32;;;;;;;13.10;6.07;;;6.20;1.00;;;;;;6141735;23;20357;-83
2022/11/03 03:56:04;;;;;;;16.00;7.75;;;6.20;1.00;;;;;;6141155;23;20231;-85
2022/11/03 03:58:41;;;;;;;16.95;8.38;;;6.10;1.00;;;;;;6141579;23;21059;-85
2022/11/03 04:01:21;;;;;;;13.23;6.97;;;6.10;1.00;;;;;;6142345;23;20215;-85
2022/11/03 04:03:50;;;;;;;15.50;7.30;;;6.10;1.00;;;;;;6144999;23;20210;-83
2022/11/03 04:06:21;;;;;;;12.90;6.60;;;6.10;1.00;;;;;;6140603;23;20211;-85
2022/11/03 04:08:51;;;;;;;13.88;6.57;;;6.00;1.00;;;;;;6143561;23;20213;-85
2022/11/03 04:23:00;;;;;;;13.18;7.72;;;5.80;1.00;;;;;;6139406;23;20212;-84
2022/11/03 04:25:40;;;;;;;11.45;7.47;;;5.70;1.00;;;;;;6138824;23;20251;-81
2022/11/03 04:28:22;;;;;;;15.20;8.40;;;5.60;1.00;;;;;;6139883;23;20315;-83
2022/11/03 04:30:52;;;;;;;13.05;7.63;;;5.70;1.00;;;;;;6142347;23;20818;-83
2022/11/03 04:33:43;;;;;;;16.05;8.23;;;5.60;1.00;;;;;;6141915;23;20199;-83
2022/11/03 04:36:21;;;;;;;13.82;7.55;;;5.50;1.00;;;;;;6138565;23;20207;-82
2022/11/03 04:39:00;;;;;;;13.45;7.30;;;5.50;1.00;;;;;;6141531;23;20221;-84
2022/11/03 04:41:42;;;;;;;15.30;8.00;;;5.40;1.00;;;;;;6136750;23;20215;-84
2022/11/03 04:44:19;;;;;;;13.45;7.00;;;5.40;1.00;;;;;;6141972;23;20216;-85
2022/11/03 04:47:01;;;;;;;16.48;8.40;;;5.40;1.00;;;;;;6140800;23;20278;-85
2022/11/03 04:49:42;;;;;;;12.23;6.65;;;5.30;1.00;;;;;;6141577;23;20226;-84
2022/11/03 04:52:22;;;;;;;16.05;7.50;;;5.40;1.00;;;;;;6133555;23;20215;-83
2022/11/03 04:57:51;;;;;;;15.15;9.07;;;5.30;1.00;;;;;;6134524;23;20316;-80
2022/11/03 05:00:20;;;;;;;16.52;8.15;;;5.30;1.00;;;;;;6139790;23;20218;-80
2022/11/03 05:02:52;;;;;;;12.18;7.00;;;5.30;1.00;;;;;;6137044;23;20215;-80
2022/11/03 05:05:41;;;;;;;13.88;7.65;;;5.30;1.00;;;;;;6159440;23;20211;-80
2022/11/03 05:08:29;;;;;;;11.45;6.93;;;5.30;1.00;;;;;;6185939;23;20225;-83
2022/11/03 05:11:20;;;;;;;13.63;6.45;;;5.30;1.00;;;;;;6174856;23;20228;-83
2022/11/03 05:14:00;;;;;;;15.43;6.65;;;5.40;1.00;;;;;;6177587;23;20218;-82
2022/11/03 05:16:49;;;;;;;13.43;7.07;;;5.30;1.00;;;;;;6169228;23;20215;-83
2022/11/03 05:19:40;;;;;;;16.98;7.13;;;5.40;1.00;;;;;;6155259;23;20682;-83
2022/11/03 05:22:28;;;;;;;12.40;6.70;;;5.40;1.00;;;;;;6182066;23;20253;-81
2022/11/03 05:25:03;;;;;;;15.73;6.82;;;5.40;1.00;;;;;;6165186;23;20226;-81
2022/11/03 05:27:33;;;;;;;13.15;6.65;;;5.40;1.00;;;;;;6160982;23;20210;-85
2022/11/03 05:30:20;;;;;;;14.55;7.10;;;5.40;1.00;;;;;;6174282;23;20251;-84
2022/11/03 05:32:50;;;;;;;14.38;9.02;;;5.40;1.00;;;;;;6191147;23;20203;-82
2022/11/03 05:35:31;;;;;;;15.38;7.35;;;5.40;1.00;;;;;;6174805;23;20223;-84
2022/11/03 05:38:11;;;;;;;13.02;7.93;;;5.40;1.00;;;;;;6180495;23;20212;-84
2022/11/03 05:40:41;;;;;;;15.65;8.30;;;5.40;1.00;;;;;;6173774;23;20328;-84
2022/11/03 05:43:20;;;;;;;15.10;7.63;;;5.40;1.00;;;;;;6171660;23;20218;-84
2022/11/03 05:46:01;;;;;;;13.35;6.22;;;5.40;1.00;;;;;;6173500;23;20215;-83
2022/11/03 05:54:23;;;;;;;14.35;6.07;;;5.30;1.00;;;;;;6157830;23;20215;-84
2022/11/03 05:56:53;;;;;;;10.52;6.28;;;5.20;1.00;;;;;;6192453;23;20211;-81
2022/11/03 05:59:43;;;;;;;10.27;6.25;;;5.20;1.00;;;;;;6157164;23;20212;-84
2022/11/03 06:02:41;;;;;;;12.50;6.32;;;5.20;1.00;;;;;;6153020;23;20230;-83
2022/11/03 06:05:21;;;;;;;16.70;8.75;;;5.10;1.00;;;;;;6163655;23;20214;-81
2022/11/03 06:08:01;;;;;;;12.35;6.70;;;5.20;1.00;;;;;;6167020;23;20324;-79
2022/11/03 06:10:40;;;;;;;10.75;6.65;;;5.20;1.00;;;;;;6168551;23;20230;-86
2022/11/03 06:13:41;;;;;;;;;;;;;;;;;;;;;
2022/11/03 06:16:41;;;;;;;17.45;7.82;;;5.10;1.00;;;;;;6167271;23;41651;-83
2022/11/03 06:19:31;;;;;;;12.98;7.05;;;5.10;1.00;;;;;;6169862;23;20222;-84
2022/11/03 06:22:12;;;;;;;16.48;7.95;;;5.20;1.00;;;;;;6166132;23;20224;-83
2022/11/03 06:24:44;;;;;;;13.40;7.25;;;5.30;1.00;;;;;;6168218;23;20235;-84
2022/11/03 06:30:31;;;;;;;12.00;7.07;;;5.20;1.00;;;;;;6165649;23;20254;-83
2022/11/03 06:33:09;;;;;;;15.00;8.48;;;5.30;1.00;;;;;;6177537;23;20400;-84
2022/11/03 06:36:02;;;;;;;12.07;6.97;;;5.40;1.00;;;;;;6167269;23;20215;-82
2022/11/03 06:38:42;;;;;;;13.30;7.55;;;5.40;1.00;;;;;;6078916;23;20221;-81
2022/11/03 06:41:32;;;;;;;16.17;6.88;;;5.40;1.00;;;;;;6086205;23;20838;-85
2022/11/03 06:44:31;;;;;;;15.25;7.03;;;5.40;1.00;;;;;;6171366;23;20207;-87
2022/11/03 06:47:09;;;;;;;14.27;7.68;;;5.50;1.00;;;;;;6141131;23;20211;-84
2022/11/03 06:50:00;;;;;;;14.93;7.53;;;5.50;1.00;;;;;;6168931;23;20211;-80
2022/11/03 06:52:43;;;;;;;15.52;7.68;;;5.70;1.00;;;;;;6169788;23;20198;-85
2022/11/03 06:55:32;;;;;;;12.40;6.60;;;5.70;1.00;;;;;;6168821;23;20225;-81
2022/11/03 07:00:53;;;;;;;11.32;6.65;;;5.90;1.00;;;;;;6166485;23;20221;-82
2022/11/03 07:03:32;;;;;;;15.20;6.95;;;6.00;1.00;;;;;;6152992;23;20366;-81
2022/11/03 07:06:23;;;;;;;11.70;7.90;;;6.00;1.00;;;;;;6174294;23;20263;-81
2022/11/03 07:09:11;;;;;;;13.30;7.72;;;6.00;1.00;;;;;;6156213;23;20229;-85
2022/11/03 07:11:51;;;;;;;17.58;6.85;;;5.90;1.00;;;;;;6156524;23;20222;-87
2022/11/03 07:14:23;;;;;;;11.80;6.35;;;5.90;1.00;;;;;;6168655;23;20225;-85
2022/11/03 07:16:53;;;;;;;13.68;5.93;;;5.90;1.00;;;;;;6164327;23;20862;-80
2022/11/03 07:19:25;;;;;;;12.25;6.68;;;6.00;1.00;;;;;;6160576;23;20320;-79
2022/11/03 07:21:59;;;;;;;21.30;10.77;;;6.10;1.00;;;;;;6157956;23;20683;-82
2022/11/03 07:24:31;;;;;;;16.25;6.95;;;6.20;1.00;;;;;;6159260;23;20432;-82
2022/11/03 07:27:19;;;;;;;11.88;7.05;;;6.40;1.00;;;;;;6159401;23;20207;-86
2022/11/03 07:30:03;;;;;;;14.82;7.60;;;6.50;1.00;;;;;;6165093;23;20235;-86
2022/11/03 07:32:41;;;;;;;16.05;7.30;;;6.60;1.00;;;;;;6165414;23;20220;-84
2022/11/03 07:35:32;;;;;;;13.38;7.28;;;6.70;1.00;;;;;;6173005;23;20261;-80
2022/11/03 07:41:03;;;;;;;12.20;7.07;;;7.00;1.00;;;;;;6163755;23;20255;-80
2022/11/03 07:43:40;;;;;;;12.52;7.28;;;7.10;1.00;;;;;;6167020;23;20207;-85
2022/11/03 07:46:31;;;;;;;12.68;6.50;;;7.10;1.00;;;;;;6169480;23;20212;-87
2022/11/03 07:49:20;;;;;;;14.80;7.03;;;7.20;1.00;;;;;;6166645;23;21166;-85
2022/11/03 07:51:49;;;;;;;15.13;7.05;;;7.30;1.00;;;;;;6165747;23;20222;-85
2022/11/03 07:54:25;;;;;;;12.43;7.68;;;7.50;1.00;;;;;;6156760;23;20207;-87
2022/11/03 07:57:11;;;;;;;12.98;7.35;;;7.80;1.00;;;;;;6189175;23;20239;-83
2022/11/03 07:59:51;;;;;;;13.02;6.60;;;8.00;1.00;;;;;;6169407;23;20243;-86
2022/11/03 08:02:32;;;;;;;16.27;6.18;;;8.20;1.00;;;;;;6171261;23;20223;-87
2022/11/03 08:05:02;;;;;;;10.48;5.90;;;8.40;1.00;;;;;;6129420;23;20215;-84
2022/11/03 08:07:32;;;;;;;11.13;5.85;;;8.60;1.00;;;;;;6167410;23;20215;-80
2022/11/03 08:10:10;;;;;;;12.75;5.90;;;8.60;1.00;;;;;;6164587;23;20219;-83
2022/11/03 08:12:41;;;;;;;13.95;5.25;;;8.80;1.00;;;;;;6164242;23;20219;-83
2022/11/03 08:15:12;;;;;;;15.00;6.07;;;8.90;1.00;;;;;;6165106;23;20227;-84
2022/11/03 08:17:42;;;;;;;15.35;5.60;;;9.00;1.00;;;;;;6167400;23;20435;-81
2022/11/03 08:20:13;;;;;;;13.93;6.00;;;9.20;1.00;;;;;;6167538;23;20216;-80
2022/11/03 08:22:42;;;;;;;13.50;5.70;;;9.10;1.00;;;;;;6170917;23;20216;-81
2022/11/03 08:25:10;;;;;;;11.02;6.53;;;9.20;1.00;;;;;;6159921;23;21179;-82
2022/11/03 08:27:45;;;;;;;10.37;5.13;;;9.20;1.00;;;;;;6167187;23;20191;-89
2022/11/03 08:30:12;;;;;;;9.40;5.40;;;9.30;1.00;;;;;;6165278;23;20429;-81
2022/11/03 08:32:40;;;;;;;9.33;4.90;;;9.40;1.00;;;;;;6166746;23;20380;-81
2022/11/03 08:35:10;;;;;;;15.53;6.20;;;9.60;1.00;;;;;;6165517;23;20429;-86
2022/11/03 08:37:42;;;;;;;13.17;5.17;;;9.60;1.00;;;;;;6171224;23;20390;-86
2022/11/03 08:40:12;;;;;;;12.20;4.93;;;9.60;1.00;;;;;;6164061;23;20962;-82
2022/11/03 08:42:40;;;;;;;10.50;5.50;;;9.80;1.00;;;;;;6167977;23;20429;-84
2022/11/03 08:45:11;;;;;;;9.57;4.20;;;9.80;1.00;;;;;;6165877;23;20647;-82
2022/11/03 08:47:43;;;;;;;12.07;4.77;;;9.80;1.00;;;;;;6166964;23;20403;-82
2022/11/03 08:50:12;;;;;;;12.40;4.40;;;9.90;1.00;;;;;;6164303;23;20432;-82
2022/11/03 08:52:42;;;;;;;12.43;3.90;;;10.10;1.00;;;;;;6164887;23;20491;-78
2022/11/03 08:55:12;;;;;;;11.13;4.50;;;10.30;1.00;;;;;;6160268;23;20433;-83
2022/11/03 08:57:41;;;;;;;8.57;3.70;;;10.40;1.00;;;;;;6160320;23;21244;-79
2022/11/03 09:00:13;;;;;;;10.60;4.40;;;10.50;1.00;;;;;;6155317;23;20427;-80
2022/11/03 09:02:40;;;;;;;9.67;4.00;;;10.60;1.00;;;;;;6157395;23;20558;-82
2022/11/03 09:05:11;;;;;;;9.40;4.73;;;10.70;1.00;;;;;;6143913;23;20469;-81
2022/11/03 09:07:53;;;;;;;10.27;3.70;;;10.80;1.00;;;;;;6181340;23;20436;-84
2022/11/03 09:10:22;;;;;;;12.17;3.93;;;11.00;1.00;;;;;;6158513;23;20935;-83
2022/11/03 09:12:52;;;;;;;9.77;4.13;;;11.90;1.00;;;;;;6162166;23;20425;-83
2022/11/03 09:15:19;;;;;;;13.43;3.90;;;12.90;1.00;;;;;;6162824;23;20412;-82
2022/11/03 09:17:52;;;;;;;9.47;3.13;;;14.20;1.00;;;;;;6161368;23;20407;-83
2022/11/03 09:20:21;;;;;;;7.60;3.30;;;15.20;1.00;;;;;;6163360;23;20425;-83
2022/11/03 09:22:53;;;;;;;11.20;4.37;;;15.10;1.00;;;;;;6157038;23;20411;-82
2022/11/03 09:25:21;;;;;;;9.83;4.00;;;14.50;1.00;;;;;;6158221;23;21231;-82
2022/11/03 09:27:50;;;;;;;10.20;4.50;;;13.80;1.00;;;;;;6160918;23;20393;-87
2022/11/03 09:30:21;;;;;;;13.43;3.53;;;13.30;1.00;;;;;;6162087;23;20501;-86
2022/11/03 09:32:51;;;;;;;11.27;4.73;;;13.00;1.00;;;;;;6164619;23;20433;-82
2022/11/03 09:35:31;;;;;;;7.20;3.47;;;12.70;1.00;;;;;;6158912;23;20627;-83
2022/11/03 09:38:02;;;;;;;10.07;3.60;;;12.80;1.00;;;;;;6162377;23;20469;-84
2022/11/03 09:40:43;;;;;;;11.87;3.93;;;13.00;1.00;;;;;;6162092;23;20414;-86
2022/11/03 09:43:13;;;;;;;9.97;4.33;;;13.30;1.00;;;;;;6163394;23;20471;-83
2022/11/03 09:45:50;;;;;;;10.97;3.80;;;13.40;1.00;;;;;;6167229;23;20434;-84
2022/11/03 09:48:51;;;;;;;9.10;3.90;;;13.60;1.00;;;;;;6170950;23;20443;-84
2022/11/03 09:51:30;;;;;;;10.83;4.67;;;13.60;1.00;;;;;;6154788;23;20396;-88
2022/11/03 09:54:34;;;;;;;;;;;;;;;;;;;;;
2022/11/03 09:57:21;;;;;;;13.20;4.50;;;13.60;1.00;;;;;;6036552;23;40816;-82
2022/11/03 09:59:51;;;;;;;13.03;4.33;;;13.60;1.00;;;;;;6071688;23;20402;-83
2022/11/03 10:02:32;;;;;;;10.40;3.73;;;13.60;1.00;;;;;;6163730;23;20428;-86
2022/11/03 10:05:02;;;;;;;9.47;3.37;;;13.60;1.00;;;;;;6165555;23;20421;-86
2022/11/03 10:07:34;;;;;;;7.90;2.93;;;13.50;1.00;;;;;;6165350;23;20894;-86
2022/11/03 10:10:12;;;;;;;13.93;4.40;;;13.70;1.00;;;;;;6159588;23;20413;-81
2022/11/03 10:12:42;;;;;;;10.83;3.23;;;14.10;1.00;;;;;;6163252;23;20661;-81
2022/11/03 10:15:21;;;;;;;9.70;3.70;;;14.50;1.00;;;;;;6163800;23;20424;-83
2022/11/03 10:17:52;;;;;;;6.77;2.70;;;14.90;1.00;;;;;;6176003;23;20465;-85
2022/11/03 10:20:24;;;;;;;8.90;3.10;;;15.00;1.00;;;;;;6164226;23;20475;-85
2022/11/03 10:22:53;;;;;;;8.70;3.07;;;15.10;1.00;;;;;;6165484;23;20400;-84
2022/11/03 10:26:12;;;;;;;8.90;2.80;;;14.80;1.00;;;;;;6169032;23;20432;-85
2022/11/03 10:31:53;;;;;;;10.03;3.43;;;15.30;1.00;;;;;;6079085;23;20419;-87
2022/11/03 10:34:43;;;;;;;9.77;2.97;;;15.70;1.00;;;;;;6072200;23;20428;-81
2022/11/03 10:37:23;;;;;;;11.90;4.00;;;16.00;1.00;;;;;;6096295;23;20395;-80
2022/11/03 10:39:57;;;;;;;14.87;5.43;;;16.00;1.00;;;;;;6150724;23;20455;-82
2022/11/03 10:42:31;;;;;;;9.70;3.37;;;16.30;1.00;;;;;;6148858;23;20495;-81
2022/11/03 10:45:17;;;;;;;15.97;4.23;;;15.70;1.00;;;;;;6159207;23;20400;-82
2022/11/03 10:48:02;;;;;;;7.60;3.40;;;15.40;1.00;;;;;;6162274;23;20429;-81
2022/11/03 10:50:34;;;;;;;9.53;3.60;;;15.30;1.00;;;;;;6166563;23;20408;-83
2022/11/03 10:53:11;;;;;;;7.93;3.00;;;15.50;1.00;;;;;;6162288;23;20429;-82
2022/11/03 10:55:41;;;;;;;10.50;3.23;;;15.40;1.00;;;;;;6152449;23;20472;-83
2022/11/03 10:58:13;;;;;;;7.27;2.83;;;15.60;1.00;;;;;;6175823;23;20846;-83
2022/11/03 11:00:42;;;;;;;7.93;2.67;;;15.70;1.00;;;;;;6162613;23;20555;-81
2022/11/03 11:03:11;;;;;;;9.10;3.13;;;16.00;1.00;;;;;;6147165;23;20421;-84
2022/11/03 11:05:50;;;;;;;9.53;3.13;;;16.10;1.00;;;;;;6164531;23;20469;-82
2022/11/03 11:08:24;;;;;;;9.77;2.90;;;16.00;1.00;;;;;;6165366;23;20399;-81
2022/11/03 11:10:51;;;;;;;8.53;3.57;;;15.90;1.00;;;;;;6167404;23;20468;-83
2022/11/03 11:13:31;;;;;;;6.93;2.60;;;15.80;1.00;;;;;;6170090;23;20434;-82
2022/11/03 11:16:03;;;;;;;11.07;3.90;;;15.40;1.00;;;;;;6167731;23;20409;-81
2022/11/03 11:19:11;;;;;;;13.43;3.37;;;15.10;1.00;;;;;;6168573;23;20377;-81
2022/11/03 11:22:02;;;;;;;8.67;3.53;;;15.00;1.00;;;;;;6168764;23;20447;-81
2022/11/03 11:25:03;;;;;;;10.33;3.13;;;14.90;1.00;;;;;;6168146;23;20396;-80
2022/11/03 11:28:10;;;;;;;13.90;3.67;;;14.70;1.00;;;;;;6162005;23;20382;-83
2022/11/03 11:34:42;;;;;;;7.27;2.87;;;14.40;1.00;;;;;;6091048;23;20469;-82
2022/11/03 11:37:41;;;;;;;9.67;3.53;;;14.20;1.00;;;;;;6167964;23;20404;-81
2022/11/03 11:40:14;;;;;;;10.30;3.20;;;14.10;1.00;;;;;;6048302;23;20423;-82
2022/11/03 11:43:17;;;;;;;9.47;3.13;;;14.10;1.00;;;;;;6144713;23;20456;-84
2022/11/03 11:46:30;;;;;;;9.43;2.90;;;14.00;1.00;;;;;;6147505;23;20724;-83
2022/11/03 11:49:23;;;;;;;8.80;3.30;;;14.00;1.00;;;;;;6122898;23;20437;-80
2022/11/03 11:51:52;;;;;;;10.30;3.37;;;14.10;1.00;;;;;;6165549;23;20404;-82
2022/11/03 11:54:21;;;;;;;8.27;3.23;;;14.00;1.00;;;;;;6167560;23;20775;-83
2022/11/03 11:56:51;;;;;;;9.37;2.87;;;14.10;1.00;;;;;;6166621;23;20405;-83
2022/11/03 11:59:22;;;;;;;11.33;2.70;;;14.00;1.00;;;;;;6164784;23;20827;-85
2022/11/03 12:02:00;;;;;;;9.53;3.40;;;14.10;1.00;;;;;;6154635;23;20401;-82
2022/11/03 12:04:32;;;;;;;8.73;3.10;;;14.20;1.00;;;;;;6165900;23;20377;-83
2022/11/03 12:07:03;;;;;;;9.27;3.27;;;14.20;1.00;;;;;;6164549;23;20496;-84
2022/11/03 12:09:33;;;;;;;8.73;2.63;;;14.20;1.00;;;;;;6163858;23;20421;-83
2022/11/03 12:12:12;;;;;;;8.80;2.93;;;14.20;1.00;;;;;;6165526;23;20463;-81
2022/11/03 12:14:44;;;;;;;10.10;3.03;;;14.00;1.00;;;;;;6165024;23;20422;-82
2022/11/03 12:20:44;;;;;;;9.93;3.13;;;13.80;1.00;;;;;;6138077;23;20380;-81
2022/11/03 12:23:33;;;;;;;10.20;3.10;;;13.70;1.00;;;;;;6161503;23;20443;-86
2022/11/03 12:26:04;;;;;;;9.20;3.00;;;13.80;1.00;;;;;;6159089;23;20463;-82
2022/11/03 12:28:43;;;;;;;12.03;3.50;;;13.80;1.00;;;;;;6141459;23;20420;-84
2022/11/03 12:31:14;;;;;;;12.83;2.97;;;13.80;1.00;;;;;;6168219;23;20459;-86
2022/11/03 12:33:43;;;;;;;9.47;3.43;;;13.80;1.00;;;;;;6169200;23;20434;-86
2022/11/03 12:36:17;;;;;;;9.90;3.77;;;13.90;1.00;;;;;;6168796;23;21204;-83
2022/11/03 12:38:50;;;;;;;8.23;3.40;;;13.90;1.00;;;;;;6167492;23;20433;-82
2022/11/03 12:41:24;;;;;;;7.57;2.50;;;14.00;1.00;;;;;;6166727;23;20918;-88
2022/11/03 12:44:01;;;;;;;12.47;3.30;;;14.10;1.00;;;;;;6165389;23;20385;-84
2022/11/03 12:46:34;;;;;;;7.77;2.57;;;14.10;1.00;;;;;;6165158;23;20380;-85
2022/11/03 12:49:04;;;;;;;8.20;2.73;;;14.20;1.00;;;;;;6166646;23;20457;-85
2022/11/03 12:51:31;;;;;;;7.83;3.03;;;14.10;1.00;;;;;;6169971;23;20405;-81
2022/11/03 12:54:04;;;;;;;8.30;3.50;;;14.00;1.00;;;;;;6164913;23;20444;-81
2022/11/03 12:56:32;;;;;;;13.70;3.30;;;14.10;1.00;;;;;;6173623;23;20498;-83
2022/11/03 12:59:02;;;;;;;11.90;4.37;;;14.20;1.00;;;;;;6162693;23;20433;-81
2022/11/03 13:01:33;;;;;;;7.53;2.60;;;14.30;1.00;;;;;;6163893;23;20381;-80
2022/11/03 13:04:04;;;;;;;10.50;2.90;;;14.10;1.00;;;;;;6162420;23;20420;-81
2022/11/03 13:06:32;;;;;;;11.40;3.33;;;14.10;1.00;;;;;;6161789;23;20417;-81
2022/11/03 13:09:31;;;;;;;8.83;2.80;;;14.20;1.00;;;;;;6162961;23;20395;-82
2022/11/03 13:14:53;;;;;;;8.77;3.40;;;14.20;1.00;;;;;;6153699;23;21180;-84
2022/11/03 13:17:23;;;;;;;9.70;3.80;;;14.30;1.00;;;;;;6152620;23;20787;-86
2022/11/03 13:19:56;;;;;;;11.23;3.80;;;14.30;1.00;;;;;;6139529;23;20990;-88
2022/11/03 13:22:44;;;;;;;;;;;;;;;;;;;;;
2022/11/03 13:25:12;;;;;;;9.13;3.17;;;14.20;1.00;;;;;;6162733;23;37750;-82
2022/11/03 13:27:42;;;;;;;8.70;3.30;;;14.20;1.00;;;;;;6162498;23;20448;-82
2022/11/03 13:30:13;;;;;;;13.90;3.67;;;14.20;1.00;;;;;;6163811;23;21294;-82
2022/11/03 13:32:42;;;;;;;7.70;3.23;;;14.10;1.00;;;;;;6167020;23;20416;-83
2022/11/03 13:35:15;;;;;;;9.33;3.70;;;14.20;1.00;;;;;;6159188;23;20474;-84
2022/11/03 13:37:43;;;;;;;12.53;3.07;;;14.10;1.00;;;;;;6171573;23;20530;-83
2022/11/03 13:40:14;;;;;;;12.27;3.50;;;14.30;1.00;;;;;;6169374;23;20451;-83
2022/11/03 13:42:50;;;;;;;13.60;4.33;;;14.20;1.00;;;;;;6169062;23;20479;-82
2022/11/03 13:45:35;;;;;;;9.40;3.00;;;14.20;1.00;;;;;;6168640;23;20416;-83
2022/11/03 13:48:02;;;;;;;10.97;3.37;;;14.30;1.00;;;;;;6154547;23;20425;-82
2022/11/03 13:50:31;;;;;;;11.87;3.63;;;14.40;1.00;;;;;;6167915;23;20433;-83
2022/11/03 13:53:08;;;;;;;9.00;3.90;;;14.30;1.00;;;;;;6138447;23;20393;-82
2022/11/03 13:55:43;;;;;;;10.03;6.00;;;14.20;1.00;;;;;;6168021;23;20479;-85
2022/11/03 13:58:13;;;;;;;8.10;3.73;;;14.30;1.00;;;;;;6154030;23;20388;-86
2022/11/03 14:00:44;;;;;;;9.60;3.50;;;14.40;1.00;;;;;;6171874;23;20435;-90
2022/11/03 14:03:14;;;;;;;8.97;3.90;;;14.40;1.00;;;;;;6167406;23;20397;-85
2022/11/03 14:05:43;;;;;;;11.97;3.30;;;14.40;1.00;;;;;;6164096;23;20421;-85
2022/11/03 14:08:11;;;;;;;9.33;3.10;;;14.50;1.00;;;;;;6164101;23;20452;-83
2022/11/03 14:10:43;;;;;;;9.93;3.37;;;14.50;1.00;;;;;;6152942;23;21372;-83
2022/11/03 14:13:21;;;;;;;10.83;4.07;;;14.40;1.00;;;;;;6162940;23;20384;-85
2022/11/03 14:15:52;;;;;;;8.63;4.20;;;14.40;1.00;;;;;;6167348;23;20424;-84
2022/11/03 14:18:35;;;;;;;16.13;5.00;;;14.40;1.00;;;;;;6170564;23;20412;-85
2022/11/03 14:21:02;;;;;;;9.37;3.20;;;14.30;1.00;;;;;;6167226;23;20437;-84
2022/11/03 14:23:42;;;;;;;8.47;3.60;;;14.20;1.00;;;;;;6171703;23;20377;-84
2022/11/03 14:26:23;;;;;;;8.47;3.33;;;14.10;1.00;;;;;;6172027;23;20416;-86
2022/11/03 14:28:54;;;;;;;10.47;3.93;;;14.00;1.00;;;;;;6171297;23;20397;-85
2022/11/03 14:31:23;;;;;;;6.93;3.20;;;14.00;1.00;;;;;;6165803;23;20407;-83
2022/11/03 14:33:53;;;;;;;13.40;4.77;;;13.90;1.00;;;;;;6139531;23;20405;-82
2022/11/03 14:36:20;;;;;;;10.23;4.93;;;13.80;1.00;;;;;;6171502;23;20425;-84
2022/11/03 14:38:53;;;;;;;13.23;4.30;;;13.70;1.00;;;;;;6174276;23;20497;-83
2022/11/03 14:44:12;;;;;;;9.73;3.37;;;13.50;1.00;;;;;;6163273;23;20464;-82
2022/11/03 14:46:54;;;;;;;10.47;3.33;;;13.40;1.00;;;;;;6164908;23;20515;-84